sensor_id;sensor_type;location;lat;lon;timestamp;temperature;humidity
4964;DHT22;2497;47.410;9.740;2023-05-20T00:01:17;11.30;99.90
4964;DHT22;2497;47.410;9.740;2023-05-20T00:03:44;11.20;99.90
4964;DHT22;2497;47.410;9.740;2023-05-20T00:06:11;11.20;99.90
4964;DHT22;2497;47.410;9.740;2023-05-20T00:08:38;11.10;99.90
4964;DHT22;2497;47.410;9.740;2023-05-20T00:11:06;11.20;99.90
4964;DHT22;2497;47.410;9.740;2023-05-20T00:13:33;11.10;99.90
4964;DHT22;2497;47.410;9.740;2023-05-20T00:16:01;11.00;99.90
4964;DHT22;2497;47.410;9.740;2023-05-20T00:18:28;11.00;99.90
4964;DHT22;2497;47.410;9.740;2023-05-20T00:20:55;10.90;99.90
4964;DHT22;2497;47.410;9.740;2023-05-20T00:23:22;10.80;99.90
4964;DHT22;2497;47.410;9.740;2023-05-20T00:25:49;10.80;99.90
4964;DHT22;2497;47.410;9.740;2023-05-20T00:28:17;10.80;99.90
4964;DHT22;2497;47.410;9.740;2023-05-20T00:30:45;10.80;99.90
4964;DHT22;2497;47.410;9.740;2023-05-20T00:33:12;10.80;99.90
4964;DHT22;2497;47.410;9.740;2023-05-20T00:35:39;10.70;99.90
4964;DHT22;2497;47.410;9.740;2023-05-20T00:38:06;10.70;99.90
4964;DHT22;2497;47.410;9.740;2023-05-20T00:40:33;10.70;99.90
4964;DHT22;2497;47.410;9.740;2023-05-20T00:43:00;10.70;99.90
4964;DHT22;2497;47.410;9.740;2023-05-20T00:45:30;10.70;99.90
4964;DHT22;2497;47.410;9.740;2023-05-20T00:47:58;10.70;99.90
4964;DHT22;2497;47.410;9.740;2023-05-20T00:50:27;10.60;99.90
4964;DHT22;2497;47.410;9.740;2023-05-20T00:52:54;10.60;99.90
4964;DHT22;2497;47.410;9.740;2023-05-20T00:55:21;10.40;99.90
4964;DHT22;2497;47.410;9.740;2023-05-20T00:57:49;10.30;99.90
4964;DHT22;2497;47.410;9.740;2023-05-20T01:00:16;10.40;99.90
4964;DHT22;2497;47.410;9.740;2023-05-20T01:02:44;10.40;99.90
4964;DHT22;2497;47.410;9.740;2023-05-20T01:05:11;10.50;99.90
4964;DHT22;2497;47.410;9.740;2023-05-20T01:07:38;10.50;99.90
4964;DHT22;2497;47.410;9.740;2023-05-20T01:10:07;10.50;99.90
4964;DHT22;2497;47.410;9.740;2023-05-20T01:12:36;10.50;99.90
4964;DHT22;2497;47.410;9.740;2023-05-20T01:15:08;10.40;99.90
4964;DHT22;2497;47.410;9.740;2023-05-20T01:17:38;10.50;99.90
4964;DHT22;2497;47.410;9.740;2023-05-20T01:20:08;10.60;99.90
4964;DHT22;2497;47.410;9.740;2023-05-20T01:22:38;10.60;99.90
4964;DHT22;2497;47.410;9.740;2023-05-20T01:25:05;10.60;99.90
4964;DHT22;2497;47.410;9.740;2023-05-20T01:27:33;10.60;99.90
4964;DHT22;2497;47.410;9.740;2023-05-20T01:30:00;10.50;99.90
4964;DHT22;2497;47.410;9.740;2023-05-20T01:32:31;10.60;99.90
4964;DHT22;2497;47.410;9.740;2023-05-20T01:35:00;10.60;99.90
4964;DHT22;2497;47.410;9.740;2023-05-20T01:37:29;10.60;99.90
4964;DHT22;2497;47.410;9.740;2023-05-20T01:39:59;10.60;99.90
4964;DHT22;2497;47.410;9.740;2023-05-20T01:42:27;10.70;99.90
4964;DHT22;2497;47.410;9.740;2023-05-20T01:44:54;10.70;99.90
4964;DHT22;2497;47.410;9.740;2023-05-20T01:47:21;10.60;99.90
4964;DHT22;2497;47.410;9.740;2023-05-20T01:49:48;10.70;99.90
4964;DHT22;2497;47.410;9.740;2023-05-20T01:52:18;10.70;99.90
4964;DHT22;2497;47.410;9.740;2023-05-20T01:54:45;10.70;99.90
4964;DHT22;2497;47.410;9.740;2023-05-20T01:57:17;10.70;99.90
4964;DHT22;2497;47.410;9.740;2023-05-20T01:59:44;10.70;99.90
4964;DHT22;2497;47.410;9.740;2023-05-20T02:02:11;10.80;99.90
4964;DHT22;2497;47.410;9.740;2023-05-20T02:04:38;10.80;99.90
4964;DHT22;2497;47.410;9.740;2023-05-20T02:07:06;10.80;99.90
4964;DHT22;2497;47.410;9.740;2023-05-20T02:09:33;10.70;99.90
4964;DHT22;2497;47.410;9.740;2023-05-20T02:12:00;10.80;99.90
4964;DHT22;2497;47.410;9.740;2023-05-20T02:14:29;10.80;99.90
4964;DHT22;2497;47.410;9.740;2023-05-20T02:16:56;10.80;99.90
4964;DHT22;2497;47.410;9.740;2023-05-20T02:19:23;10.80;99.90
4964;DHT22;2497;47.410;9.740;2023-05-20T02:21:50;10.70;99.90
4964;DHT22;2497;47.410;9.740;2023-05-20T02:24:17;10.70;99.90
4964;DHT22;2497;47.410;9.740;2023-05-20T02:26:45;10.80;99.90
4964;DHT22;2497;47.410;9.740;2023-05-20T02:29:14;10.80;99.90
4964;DHT22;2497;47.410;9.740;2023-05-20T02:31:42;10.80;99.90
4964;DHT22;2497;47.410;9.740;2023-05-20T02:34:09;10.80;99.90
4964;DHT22;2497;47.410;9.740;2023-05-20T02:36:36;10.80;99.90
4964;DHT22;2497;47.410;9.740;2023-05-20T02:39:03;10.90;99.90
4964;DHT22;2497;47.410;9.740;2023-05-20T02:41:30;10.90;99.90
4964;DHT22;2497;47.410;9.740;2023-05-20T02:43:57;10.90;99.90
4964;DHT22;2497;47.410;9.740;2023-05-20T02:46:24;10.80;99.90
4964;DHT22;2497;47.410;9.740;2023-05-20T02:48:52;10.80;99.90
4964;DHT22;2497;47.410;9.740;2023-05-20T02:51:19;10.80;99.90
4964;DHT22;2497;47.410;9.740;2023-05-20T02:53:46;10.80;99.90
4964;DHT22;2497;47.410;9.740;2023-05-20T02:56:13;10.80;99.90
4964;DHT22;2497;47.410;9.740;2023-05-20T02:58:40;10.80;99.90
4964;DHT22;2497;47.410;9.740;2023-05-20T03:01:07;10.70;99.90
4964;DHT22;2497;47.410;9.740;2023-05-20T03:03:35;10.70;99.90
4964;DHT22;2497;47.410;9.740;2023-05-20T03:06:04;10.60;99.90
4964;DHT22;2497;47.410;9.740;2023-05-20T03:08:31;10.60;99.90
4964;DHT22;2497;47.410;9.740;2023-05-20T03:10:59;10.60;99.90
4964;DHT22;2497;47.410;9.740;2023-05-20T03:13:27;10.70;99.90
4964;DHT22;2497;47.410;9.740;2023-05-20T03:15:54;10.70;99.90
4964;DHT22;2497;47.410;9.740;2023-05-20T03:18:21;10.70;99.90
4964;DHT22;2497;47.410;9.740;2023-05-20T03:20:48;10.60;99.90
4964;DHT22;2497;47.410;9.740;2023-05-20T03:23:16;10.60;99.90
4964;DHT22;2497;47.410;9.740;2023-05-20T03:25:43;10.50;99.90
4964;DHT22;2497;47.410;9.740;2023-05-20T03:28:10;10.40;99.90
4964;DHT22;2497;47.410;9.740;2023-05-20T03:30:37;10.50;99.90
4964;DHT22;2497;47.410;9.740;2023-05-20T03:33:04;10.50;99.90
4964;DHT22;2497;47.410;9.740;2023-05-20T03:35:32;10.40;99.90
4964;DHT22;2497;47.410;9.740;2023-05-20T03:37:59;10.40;99.90
4964;DHT22;2497;47.410;9.740;2023-05-20T03:40:27;10.30;99.90
4964;DHT22;2497;47.410;9.740;2023-05-20T03:42:54;10.40;99.90
4964;DHT22;2497;47.410;9.740;2023-05-20T03:45:21;10.40;99.90
4964;DHT22;2497;47.410;9.740;2023-05-20T03:47:49;10.40;99.90
4964;DHT22;2497;47.410;9.740;2023-05-20T03:50:16;10.30;99.90
4964;DHT22;2497;47.410;9.740;2023-05-20T03:52:43;10.30;99.90
4964;DHT22;2497;47.410;9.740;2023-05-20T03:55:11;10.30;99.90
4964;DHT22;2497;47.410;9.740;2023-05-20T03:57:39;10.30;99.90
4964;DHT22;2497;47.410;9.740;2023-05-20T04:00:07;10.30;99.90
4964;DHT22;2497;47.410;9.740;2023-05-20T04:02:36;10.20;99.90
4964;DHT22;2497;47.410;9.740;2023-05-20T04:05:04;10.20;99.90
4964;DHT22;2497;47.410;9.740;2023-05-20T04:07:33;10.30;99.90
4964;DHT22;2497;47.410;9.740;2023-05-20T04:10:00;10.30;99.90
4964;DHT22;2497;47.410;9.740;2023-05-20T04:12:27;10.40;99.90
4964;DHT22;2497;47.410;9.740;2023-05-20T04:14:58;10.40;99.90
4964;DHT22;2497;47.410;9.740;2023-05-20T04:17:27;10.50;99.90
4964;DHT22;2497;47.410;9.740;2023-05-20T04:19:55;10.50;99.90
4964;DHT22;2497;47.410;9.740;2023-05-20T04:22:23;10.50;99.90
4964;DHT22;2497;47.410;9.740;2023-05-20T04:24:51;10.50;99.90
4964;DHT22;2497;47.410;9.740;2023-05-20T04:27:18;10.60;99.90
4964;DHT22;2497;47.410;9.740;2023-05-20T04:29:46;10.60;99.90
4964;DHT22;2497;47.410;9.740;2023-05-20T04:32:17;10.60;99.90
4964;DHT22;2497;47.410;9.740;2023-05-20T04:34:44;10.50;99.90
4964;DHT22;2497;47.410;9.740;2023-05-20T04:37:13;10.60;99.90
4964;DHT22;2497;47.410;9.740;2023-05-20T04:39:40;10.50;99.90
4964;DHT22;2497;47.410;9.740;2023-05-20T04:42:08;10.50;99.90
4964;DHT22;2497;47.410;9.740;2023-05-20T04:44:35;10.40;99.90
4964;DHT22;2497;47.410;9.740;2023-05-20T04:47:02;10.30;99.90
4964;DHT22;2497;47.410;9.740;2023-05-20T04:49:33;10.30;99.90
4964;DHT22;2497;47.410;9.740;2023-05-20T04:52:01;10.30;99.90
4964;DHT22;2497;47.410;9.740;2023-05-20T04:54:29;10.50;99.90
4964;DHT22;2497;47.410;9.740;2023-05-20T04:56:57;10.50;99.90
4964;DHT22;2497;47.410;9.740;2023-05-20T04:59:24;10.40;99.90
4964;DHT22;2497;47.410;9.740;2023-05-20T05:01:51;10.40;99.90
4964;DHT22;2497;47.410;9.740;2023-05-20T05:04:25;10.40;99.90
4964;DHT22;2497;47.410;9.740;2023-05-20T05:06:54;10.40;99.90
4964;DHT22;2497;47.410;9.740;2023-05-20T05:09:21;10.40;99.90
4964;DHT22;2497;47.410;9.740;2023-05-20T05:11:48;10.40;99.90
4964;DHT22;2497;47.410;9.740;2023-05-20T05:14:15;10.40;99.90
4964;DHT22;2497;47.410;9.740;2023-05-20T05:16:42;10.40;99.90
4964;DHT22;2497;47.410;9.740;2023-05-20T05:19:09;10.50;99.90
4964;DHT22;2497;47.410;9.740;2023-05-20T05:21:38;10.50;99.90
4964;DHT22;2497;47.410;9.740;2023-05-20T05:24:06;10.50;99.90
4964;DHT22;2497;47.410;9.740;2023-05-20T05:26:33;10.50;99.90
4964;DHT22;2497;47.410;9.740;2023-05-20T05:29:00;10.50;99.90
4964;DHT22;2497;47.410;9.740;2023-05-20T05:31:27;10.70;99.90
4964;DHT22;2497;47.410;9.740;2023-05-20T05:33:55;10.80;99.90
4964;DHT22;2497;47.410;9.740;2023-05-20T05:36:23;10.90;99.90
4964;DHT22;2497;47.410;9.740;2023-05-20T05:38:50;11.00;99.90
4964;DHT22;2497;47.410;9.740;2023-05-20T05:41:19;11.10;99.90
4964;DHT22;2497;47.410;9.740;2023-05-20T05:43:46;11.20;99.90
4964;DHT22;2497;47.410;9.740;2023-05-20T05:46:13;11.20;99.90
4964;DHT22;2497;47.410;9.740;2023-05-20T05:48:40;11.30;99.90
4964;DHT22;2497;47.410;9.740;2023-05-20T05:51:07;11.30;99.90
4964;DHT22;2497;47.410;9.740;2023-05-20T05:53:34;11.40;99.90
4964;DHT22;2497;47.410;9.740;2023-05-20T05:56:01;11.50;99.90
4964;DHT22;2497;47.410;9.740;2023-05-20T05:58:30;11.60;99.90
4964;DHT22;2497;47.410;9.740;2023-05-20T06:00:57;11.80;99.90
4964;DHT22;2497;47.410;9.740;2023-05-20T06:03:24;12.00;99.90
4964;DHT22;2497;47.410;9.740;2023-05-20T06:05:51;12.10;99.90
4964;DHT22;2497;47.410;9.740;2023-05-20T06:08:18;12.10;99.90
4964;DHT22;2497;47.410;9.740;2023-05-20T06:10:47;12.10;99.90
4964;DHT22;2497;47.410;9.740;2023-05-20T06:13:15;12.20;99.90
4964;DHT22;2497;47.410;9.740;2023-05-20T06:15:43;12.30;99.90
4964;DHT22;2497;47.410;9.740;2023-05-20T06:18:11;12.20;99.90
4964;DHT22;2497;47.410;9.740;2023-05-20T06:20:38;12.30;99.90
4964;DHT22;2497;47.410;9.740;2023-05-20T06:23:05;12.40;99.90
4964;DHT22;2497;47.410;9.740;2023-05-20T06:25:32;12.50;99.90
4964;DHT22;2497;47.410;9.740;2023-05-20T06:27:59;12.60;99.90
4964;DHT22;2497;47.410;9.740;2023-05-20T06:30:26;12.70;99.90
4964;DHT22;2497;47.410;9.740;2023-05-20T06:32:55;12.80;99.90
4964;DHT22;2497;47.410;9.740;2023-05-20T06:35:22;12.90;99.90
4964;DHT22;2497;47.410;9.740;2023-05-20T06:37:49;13.10;99.90
4964;DHT22;2497;47.410;9.740;2023-05-20T06:40:16;13.30;99.90
4964;DHT22;2497;47.410;9.740;2023-05-20T06:42:43;13.50;99.90
4964;DHT22;2497;47.410;9.740;2023-05-20T06:45:11;13.60;99.90
4964;DHT22;2497;47.410;9.740;2023-05-20T06:47:38;13.70;99.90
4964;DHT22;2497;47.410;9.740;2023-05-20T06:50:07;13.60;99.90
4964;DHT22;2497;47.410;9.740;2023-05-20T06:52:34;13.40;99.90
4964;DHT22;2497;47.410;9.740;2023-05-20T06:55:02;13.60;99.90
4964;DHT22;2497;47.410;9.740;2023-05-20T06:57:29;13.70;99.90
4964;DHT22;2497;47.410;9.740;2023-05-20T06:59:56;13.70;99.90
4964;DHT22;2497;47.410;9.740;2023-05-20T07:02:24;13.80;99.90
4964;DHT22;2497;47.410;9.740;2023-05-20T07:04:51;14.00;99.90
4964;DHT22;2497;47.410;9.740;2023-05-20T07:07:19;14.00;99.90
4964;DHT22;2497;47.410;9.740;2023-05-20T07:09:46;14.30;99.90
4964;DHT22;2497;47.410;9.740;2023-05-20T07:12:14;14.40;99.90
4964;DHT22;2497;47.410;9.740;2023-05-20T07:14:41;14.60;99.90
4964;DHT22;2497;47.410;9.740;2023-05-20T07:17:08;14.60;99.90
4964;DHT22;2497;47.410;9.740;2023-05-20T07:19:36;14.90;99.90
4964;DHT22;2497;47.410;9.740;2023-05-20T07:22:03;15.10;99.90
4964;DHT22;2497;47.410;9.740;2023-05-20T07:24:31;15.20;99.90
4964;DHT22;2497;47.410;9.740;2023-05-20T07:26:58;15.30;99.90
4964;DHT22;2497;47.410;9.740;2023-05-20T07:29:25;15.40;99.90
4964;DHT22;2497;47.410;9.740;2023-05-20T07:31:52;15.20;99.90
4964;DHT22;2497;47.410;9.740;2023-05-20T07:34:20;15.00;99.90
4964;DHT22;2497;47.410;9.740;2023-05-20T07:36:47;15.10;99.90
4964;DHT22;2497;47.410;9.740;2023-05-20T07:39:16;15.40;99.90
4964;DHT22;2497;47.410;9.740;2023-05-20T07:41:44;16.20;99.90
4964;DHT22;2497;47.410;9.740;2023-05-20T07:44:11;16.50;99.90
4964;DHT22;2497;47.410;9.740;2023-05-20T07:46:38;16.60;99.90
4964;DHT22;2497;47.410;9.740;2023-05-20T07:49:06;17.00;99.90
4964;DHT22;2497;47.410;9.740;2023-05-20T07:51:33;17.40;99.90
4964;DHT22;2497;47.410;9.740;2023-05-20T07:54:02;17.50;99.90
4964;DHT22;2497;47.410;9.740;2023-05-20T07:56:29;18.00;99.90
4964;DHT22;2497;47.410;9.740;2023-05-20T07:58:58;17.90;99.90
4964;DHT22;2497;47.410;9.740;2023-05-20T08:01:26;17.60;99.90
4964;DHT22;2497;47.410;9.740;2023-05-20T08:03:53;17.00;99.90
4964;DHT22;2497;47.410;9.740;2023-05-20T08:06:20;17.20;99.90
4964;DHT22;2497;47.410;9.740;2023-05-20T08:08:49;17.60;99.90
4964;DHT22;2497;47.410;9.740;2023-05-20T08:11:16;18.00;99.90
4964;DHT22;2497;47.410;9.740;2023-05-20T08:13:43;18.40;99.90
4964;DHT22;2497;47.410;9.740;2023-05-20T08:16:11;18.60;99.90
4964;DHT22;2497;47.410;9.740;2023-05-20T08:18:38;18.60;99.90
4964;DHT22;2497;47.410;9.740;2023-05-20T08:21:06;18.70;99.90
4964;DHT22;2497;47.410;9.740;2023-05-20T08:23:33;18.30;99.90
4964;DHT22;2497;47.410;9.740;2023-05-20T08:26:02;18.10;99.90
4964;DHT22;2497;47.410;9.740;2023-05-20T08:28:29;17.80;99.90
4964;DHT22;2497;47.410;9.740;2023-05-20T08:30:56;17.60;99.90
4964;DHT22;2497;47.410;9.740;2023-05-20T08:33:25;17.70;99.90
4964;DHT22;2497;47.410;9.740;2023-05-20T08:35:53;17.90;99.90
4964;DHT22;2497;47.410;9.740;2023-05-20T08:38:20;18.20;99.90
4964;DHT22;2497;47.410;9.740;2023-05-20T08:40:51;18.80;99.90
4964;DHT22;2497;47.410;9.740;2023-05-20T08:43:18;19.20;99.90
4964;DHT22;2497;47.410;9.740;2023-05-20T08:45:46;18.90;99.90
4964;DHT22;2497;47.410;9.740;2023-05-20T08:48:18;18.30;99.90
4964;DHT22;2497;47.410;9.740;2023-05-20T08:50:50;18.20;99.90
4964;DHT22;2497;47.410;9.740;2023-05-20T08:53:18;18.10;99.90
4964;DHT22;2497;47.410;9.740;2023-05-20T08:55:51;18.50;99.90
4964;DHT22;2497;47.410;9.740;2023-05-20T08:58:20;18.20;99.90
4964;DHT22;2497;47.410;9.740;2023-05-20T09:00:49;17.90;99.90
4964;DHT22;2497;47.410;9.740;2023-05-20T09:03:18;18.10;99.90
4964;DHT22;2497;47.410;9.740;2023-05-20T09:05:46;18.70;99.90
4964;DHT22;2497;47.410;9.740;2023-05-20T09:08:14;18.90;99.90
4964;DHT22;2497;47.410;9.740;2023-05-20T09:10:42;19.20;99.90
4964;DHT22;2497;47.410;9.740;2023-05-20T09:13:10;19.30;99.90
4964;DHT22;2497;47.410;9.740;2023-05-20T09:15:37;19.40;99.90
4964;DHT22;2497;47.410;9.740;2023-05-20T09:18:07;19.60;99.90
4964;DHT22;2497;47.410;9.740;2023-05-20T09:20:35;19.40;99.90
4964;DHT22;2497;47.410;9.740;2023-05-20T09:23:06;19.30;99.90
4964;DHT22;2497;47.410;9.740;2023-05-20T09:25:38;19.60;99.90
4964;DHT22;2497;47.410;9.740;2023-05-20T09:28:06;20.50;99.90
4964;DHT22;2497;47.410;9.740;2023-05-20T09:30:33;20.60;99.90
4964;DHT22;2497;47.410;9.740;2023-05-20T09:33:04;20.60;99.90
4964;DHT22;2497;47.410;9.740;2023-05-20T09:35:34;20.50;99.90
4964;DHT22;2497;47.410;9.740;2023-05-20T09:38:04;20.50;99.90
4964;DHT22;2497;47.410;9.740;2023-05-20T09:40:31;20.50;99.90
4964;DHT22;2497;47.410;9.740;2023-05-20T09:43:04;20.10;99.90
4964;DHT22;2497;47.410;9.740;2023-05-20T09:45:36;20.00;99.90
4964;DHT22;2497;47.410;9.740;2023-05-20T09:48:04;19.70;99.90
4964;DHT22;2497;47.410;9.740;2023-05-20T09:50:34;19.60;99.90
4964;DHT22;2497;47.410;9.740;2023-05-20T09:53:02;20.30;99.90
4964;DHT22;2497;47.410;9.740;2023-05-20T09:55:30;21.20;99.90
4964;DHT22;2497;47.410;9.740;2023-05-20T09:58:00;21.60;99.90
4964;DHT22;2497;47.410;9.740;2023-05-20T10:00:30;21.70;99.90
4964;DHT22;2497;47.410;9.740;2023-05-20T10:02:57;20.90;99.90
4964;DHT22;2497;47.410;9.740;2023-05-20T10:05:28;20.80;99.90
4964;DHT22;2497;47.410;9.740;2023-05-20T10:08:20;20.80;99.90
4964;DHT22;2497;47.410;9.740;2023-05-20T10:10:53;20.60;99.90
4964;DHT22;2497;47.410;9.740;2023-05-20T10:13:49;20.20;99.90
4964;DHT22;2497;47.410;9.740;2023-05-20T10:16:33;19.90;99.90
4964;DHT22;2497;47.410;9.740;2023-05-20T10:19:13;20.10;99.90
4964;DHT22;2497;47.410;9.740;2023-05-20T10:21:44;20.20;99.90
4964;DHT22;2497;47.410;9.740;2023-05-20T10:24:11;20.80;99.90
4964;DHT22;2497;47.410;9.740;2023-05-20T10:26:39;21.60;99.90
4964;DHT22;2497;47.410;9.740;2023-05-20T10:29:16;22.50;99.90
4964;DHT22;2497;47.410;9.740;2023-05-20T10:31:48;22.90;99.90
4964;DHT22;2497;47.410;9.740;2023-05-20T10:34:16;23.20;99.90
4964;DHT22;2497;47.410;9.740;2023-05-20T10:39:35;23.70;99.90
4964;DHT22;2497;47.410;9.740;2023-05-20T10:42:06;23.60;99.90
4964;DHT22;2497;47.410;9.740;2023-05-20T10:44:40;22.90;99.90
4964;DHT22;2497;47.410;9.740;2023-05-20T10:47:10;22.60;99.90
4964;DHT22;2497;47.410;9.740;2023-05-20T10:49:40;22.10;99.90
4964;DHT22;2497;47.410;9.740;2023-05-20T10:52:08;21.00;99.90
4964;DHT22;2497;47.410;9.740;2023-05-20T10:54:41;20.90;99.90
4964;DHT22;2497;47.410;9.740;2023-05-20T10:57:10;21.00;99.90
4964;DHT22;2497;47.410;9.740;2023-05-20T10:59:37;21.00;99.90
4964;DHT22;2497;47.410;9.740;2023-05-20T11:02:05;21.30;99.90
4964;DHT22;2497;47.410;9.740;2023-05-20T11:04:35;21.20;99.90
4964;DHT22;2497;47.410;9.740;2023-05-20T11:07:03;21.00;99.90
4964;DHT22;2497;47.410;9.740;2023-05-20T11:09:30;21.10;99.90
4964;DHT22;2497;47.410;9.740;2023-05-20T11:11:58;21.40;99.90
4964;DHT22;2497;47.410;9.740;2023-05-20T11:14:27;21.70;99.90
4964;DHT22;2497;47.410;9.740;2023-05-20T11:16:55;22.90;99.90
4964;DHT22;2497;47.410;9.740;2023-05-20T11:19:22;23.60;99.90
4964;DHT22;2497;47.410;9.740;2023-05-20T11:21:52;24.30;99.90
4964;DHT22;2497;47.410;9.740;2023-05-20T11:24:23;24.40;99.90
4964;DHT22;2497;47.410;9.740;2023-05-20T11:26:52;24.20;99.90
4964;DHT22;2497;47.410;9.740;2023-05-20T11:29:19;24.60;99.90
4964;DHT22;2497;47.410;9.740;2023-05-20T11:31:48;24.60;99.90
4964;DHT22;2497;47.410;9.740;2023-05-20T11:34:16;24.10;99.90
4964;DHT22;2497;47.410;9.740;2023-05-20T11:36:45;23.80;99.90
4964;DHT22;2497;47.410;9.740;2023-05-20T11:39:14;23.70;99.90
4964;DHT22;2497;47.410;9.740;2023-05-20T11:41:41;25.10;99.90
4964;DHT22;2497;47.410;9.740;2023-05-20T11:44:09;26.00;99.90
4964;DHT22;2497;47.410;9.740;2023-05-20T11:46:41;26.90;99.90
4964;DHT22;2497;47.410;9.740;2023-05-20T11:49:08;26.60;99.90
4964;DHT22;2497;47.410;9.740;2023-05-20T11:51:37;26.70;99.90
4964;DHT22;2497;47.410;9.740;2023-05-20T11:54:06;27.20;99.90
4964;DHT22;2497;47.410;9.740;2023-05-20T11:56:37;28.30;99.90
4964;DHT22;2497;47.410;9.740;2023-05-20T11:59:07;28.90;99.90
4964;DHT22;2497;47.410;9.740;2023-05-20T12:01:41;29.40;99.90
4964;DHT22;2497;47.410;9.740;2023-05-20T12:04:09;29.50;99.90
4964;DHT22;2497;47.410;9.740;2023-05-20T12:06:37;28.60;99.90
4964;DHT22;2497;47.410;9.740;2023-05-20T12:09:06;27.80;99.90
4964;DHT22;2497;47.410;9.740;2023-05-20T12:11:33;27.50;99.90
4964;DHT22;2497;47.410;9.740;2023-05-20T12:14:03;26.30;99.90
4964;DHT22;2497;47.410;9.740;2023-05-20T12:16:31;26.70;99.90
4964;DHT22;2497;47.410;9.740;2023-05-20T12:18:59;26.30;99.90
4964;DHT22;2497;47.410;9.740;2023-05-20T12:21:27;26.20;99.90
4964;DHT22;2497;47.410;9.740;2023-05-20T12:23:56;26.20;99.90
4964;DHT22;2497;47.410;9.740;2023-05-20T12:26:24;25.60;99.90
4964;DHT22;2497;47.410;9.740;2023-05-20T12:28:56;25.90;99.90
4964;DHT22;2497;47.410;9.740;2023-05-20T12:31:25;26.20;99.90
4964;DHT22;2497;47.410;9.740;2023-05-20T12:33:52;27.00;99.90
4964;DHT22;2497;47.410;9.740;2023-05-20T12:36:19;27.30;99.90
4964;DHT22;2497;47.410;9.740;2023-05-20T12:38:47;26.20;99.90
4964;DHT22;2497;47.410;9.740;2023-05-20T12:41:14;25.20;99.90
4964;DHT22;2497;47.410;9.740;2023-05-20T12:43:41;25.20;99.90
4964;DHT22;2497;47.410;9.740;2023-05-20T12:46:09;25.60;99.90
4964;DHT22;2497;47.410;9.740;2023-05-20T12:48:37;26.00;99.90
4964;DHT22;2497;47.410;9.740;2023-05-20T12:51:05;26.80;99.90
4964;DHT22;2497;47.410;9.740;2023-05-20T12:53:33;26.70;99.90
4964;DHT22;2497;47.410;9.740;2023-05-20T12:56:00;25.90;99.90
4964;DHT22;2497;47.410;9.740;2023-05-20T12:58:27;25.90;99.90
4964;DHT22;2497;47.410;9.740;2023-05-20T13:00:55;26.30;99.90
4964;DHT22;2497;47.410;9.740;2023-05-20T13:03:22;26.00;99.90
4964;DHT22;2497;47.410;9.740;2023-05-20T13:05:50;26.60;99.90
4964;DHT22;2497;47.410;9.740;2023-05-20T13:08:17;26.90;99.90
4964;DHT22;2497;47.410;9.740;2023-05-20T13:10:45;26.70;99.90
4964;DHT22;2497;47.410;9.740;2023-05-20T13:13:12;27.30;99.90
4964;DHT22;2497;47.410;9.740;2023-05-20T13:15:45;28.60;99.90
4964;DHT22;2497;47.410;9.740;2023-05-20T13:18:13;29.70;99.90
4964;DHT22;2497;47.410;9.740;2023-05-20T13:20:41;30.10;99.90
4964;DHT22;2497;47.410;9.740;2023-05-20T13:23:10;30.30;99.90
4964;DHT22;2497;47.410;9.740;2023-05-20T13:25:37;29.90;99.90
4964;DHT22;2497;47.410;9.740;2023-05-20T13:28:04;29.90;99.90
4964;DHT22;2497;47.410;9.740;2023-05-20T13:30:32;29.60;99.90
4964;DHT22;2497;47.410;9.740;2023-05-20T13:33:01;29.60;99.90
4964;DHT22;2497;47.410;9.740;2023-05-20T13:35:28;30.90;99.90
4964;DHT22;2497;47.410;9.740;2023-05-20T13:37:55;30.70;99.90
4964;DHT22;2497;47.410;9.740;2023-05-20T13:40:24;30.20;99.90
4964;DHT22;2497;47.410;9.740;2023-05-20T13:42:51;30.30;99.90
4964;DHT22;2497;47.410;9.740;2023-05-20T13:45:21;31.00;99.90
4964;DHT22;2497;47.410;9.740;2023-05-20T13:47:48;30.20;99.90
4964;DHT22;2497;47.410;9.740;2023-05-20T13:50:15;30.00;99.90
4964;DHT22;2497;47.410;9.740;2023-05-20T13:52:43;30.50;99.90
4964;DHT22;2497;47.410;9.740;2023-05-20T13:55:10;29.50;99.90
4964;DHT22;2497;47.410;9.740;2023-05-20T13:57:41;29.50;99.90
4964;DHT22;2497;47.410;9.740;2023-05-20T14:00:10;29.70;99.90
4964;DHT22;2497;47.410;9.740;2023-05-20T14:02:38;28.90;99.90
4964;DHT22;2497;47.410;9.740;2023-05-20T14:05:06;28.50;99.90
4964;DHT22;2497;47.410;9.740;2023-05-20T14:07:33;28.30;99.90
4964;DHT22;2497;47.410;9.740;2023-05-20T14:10:01;28.70;99.90
4964;DHT22;2497;47.410;9.740;2023-05-20T14:12:31;29.10;99.90
4964;DHT22;2497;47.410;9.740;2023-05-20T14:15:00;28.80;99.90
4964;DHT22;2497;47.410;9.740;2023-05-20T14:17:27;28.10;99.90
4964;DHT22;2497;47.410;9.740;2023-05-20T14:19:54;28.30;99.90
4964;DHT22;2497;47.410;9.740;2023-05-20T14:22:22;28.50;99.90
4964;DHT22;2497;47.410;9.740;2023-05-20T14:24:49;28.20;99.90
4964;DHT22;2497;47.410;9.740;2023-05-20T14:27:16;27.70;99.90
4964;DHT22;2497;47.410;9.740;2023-05-20T14:29:44;26.60;99.90
4964;DHT22;2497;47.410;9.740;2023-05-20T14:32:12;25.70;99.90
4964;DHT22;2497;47.410;9.740;2023-05-20T14:34:40;24.90;99.90
4964;DHT22;2497;47.410;9.740;2023-05-20T14:37:10;24.80;99.90
4964;DHT22;2497;47.410;9.740;2023-05-20T14:39:37;24.50;99.90
4964;DHT22;2497;47.410;9.740;2023-05-20T14:42:05;24.10;99.90
4964;DHT22;2497;47.410;9.740;2023-05-20T14:44:32;23.80;99.90
4964;DHT22;2497;47.410;9.740;2023-05-20T14:46:59;23.30;99.90
4964;DHT22;2497;47.410;9.740;2023-05-20T14:49:28;23.10;99.90
4964;DHT22;2497;47.410;9.740;2023-05-20T14:51:58;23.00;99.90
4964;DHT22;2497;47.410;9.740;2023-05-20T14:54:25;23.00;99.90
4964;DHT22;2497;47.410;9.740;2023-05-20T14:56:53;23.00;99.90
4964;DHT22;2497;47.410;9.740;2023-05-20T14:59:20;23.10;99.90
4964;DHT22;2497;47.410;9.740;2023-05-20T15:01:50;23.40;99.90
4964;DHT22;2497;47.410;9.740;2023-05-20T15:04:25;23.60;99.90
4964;DHT22;2497;47.410;9.740;2023-05-20T15:06:56;23.50;99.90
4964;DHT22;2497;47.410;9.740;2023-05-20T15:09:24;23.30;99.90
4964;DHT22;2497;47.410;9.740;2023-05-20T15:11:51;23.60;99.90
4964;DHT22;2497;47.410;9.740;2023-05-20T15:14:18;23.70;99.90
4964;DHT22;2497;47.410;9.740;2023-05-20T15:16:46;23.30;99.90
4964;DHT22;2497;47.410;9.740;2023-05-20T15:19:14;23.20;99.90
4964;DHT22;2497;47.410;9.740;2023-05-20T15:21:41;23.40;99.90
4964;DHT22;2497;47.410;9.740;2023-05-20T15:24:09;23.40;99.90
4964;DHT22;2497;47.410;9.740;2023-05-20T15:26:39;23.50;99.90
4964;DHT22;2497;47.410;9.740;2023-05-20T15:29:06;23.50;99.90
4964;DHT22;2497;47.410;9.740;2023-05-20T15:31:33;23.20;99.90
4964;DHT22;2497;47.410;9.740;2023-05-20T15:34:01;23.00;99.90
4964;DHT22;2497;47.410;9.740;2023-05-20T15:36:30;22.70;99.90
4964;DHT22;2497;47.410;9.740;2023-05-20T15:39:03;22.20;99.90
4964;DHT22;2497;47.410;9.740;2023-05-20T15:41:33;22.20;99.90
4964;DHT22;2497;47.410;9.740;2023-05-20T15:44:02;22.10;99.90
4964;DHT22;2497;47.410;9.740;2023-05-20T15:46:30;22.00;99.90
4964;DHT22;2497;47.410;9.740;2023-05-20T15:48:57;21.80;99.90
4964;DHT22;2497;47.410;9.740;2023-05-20T15:51:27;21.90;99.90
4964;DHT22;2497;47.410;9.740;2023-05-20T15:53:55;21.80;99.90
4964;DHT22;2497;47.410;9.740;2023-05-20T15:56:23;21.60;99.90
4964;DHT22;2497;47.410;9.740;2023-05-20T15:58:57;21.50;99.90
4964;DHT22;2497;47.410;9.740;2023-05-20T16:01:32;21.20;99.90
4964;DHT22;2497;47.410;9.740;2023-05-20T16:03:59;21.30;99.90
4964;DHT22;2497;47.410;9.740;2023-05-20T16:06:27;21.20;99.90
4964;DHT22;2497;47.410;9.740;2023-05-20T16:08:54;21.40;99.90
4964;DHT22;2497;47.410;9.740;2023-05-20T16:11:22;21.10;99.90